Time;durP1;ratioP1;P1;durP2;ratioP2;P2;SDS_P1;SDS_P2;PMS_P1;PMS_P2;Temp;Humidity;BMP_temperature;BMP_pressure;BME280_temperature;BME280_humidity;BME280_pressure;Samples;Min_cycle;Max_cycle;Signal;HPM_P1;HPM_P2
2021/05/27 00:00:12;;;;;;;2.40;2.20;;;10.70;99.90;;;;;;5005994;28;20209;-76
2021/05/27 00:02:38;;;;;;;2.27;2.17;;;10.70;99.90;;;;;;5005954;28;20210;-75
2021/05/27 00:05:06;;;;;;;2.30;2.20;;;10.60;99.90;;;;;;5005865;28;20287;-75
2021/05/27 00:07:32;;;;;;;2.40;2.23;;;10.60;99.90;;;;;;5005727;28;20558;-76
2021/05/27 00:09:58;;;;;;;2.20;2.10;;;10.70;99.90;;;;;;5006046;28;20525;-76
2021/05/27 00:12:26;;;;;;;2.60;2.50;;;10.70;99.90;;;;;;5005824;28;20583;-76
2021/05/27 00:14:52;;;;;;;2.10;1.97;;;10.70;99.90;;;;;;5006086;28;20206;-75
2021/05/27 00:17:18;;;;;;;2.03;1.93;;;10.60;99.90;;;;;;5005842;28;20274;-77
2021/05/27 00:19:45;;;;;;;2.03;1.93;;;10.50;99.90;;;;;;5006091;28;20215;-77
2021/05/27 00:22:11;;;;;;;2.43;2.23;;;10.40;99.90;;;;;;5005848;28;20214;-77
2021/05/27 00:24:38;;;;;;;2.47;2.37;;;10.30;99.90;;;;;;5005625;28;20229;-76
2021/05/27 00:27:05;;;;;;;2.73;2.53;;;10.40;99.90;;;;;;5005937;28;20209;-77
2021/05/27 00:29:32;;;;;;;2.87;2.60;;;10.40;99.90;;;;;;5005839;28;20209;-76
2021/05/27 00:31:58;;;;;;;2.30;2.20;;;10.40;99.90;;;;;;5005421;28;20736;-75
2021/05/27 00:34:25;;;;;;;2.50;2.30;;;10.30;99.90;;;;;;5005595;28;20216;-75
2021/05/27 00:36:51;;;;;;;2.40;2.30;;;10.20;99.90;;;;;;5005460;28;20245;-75
2021/05/27 00:39:17;;;;;;;3.00;2.77;;;10.20;99.90;;;;;;5005313;28;20209;-75
2021/05/27 00:41:44;;;;;;;3.17;2.53;;;10.20;99.90;;;;;;5006441;28;20209;-77
2021/05/27 00:44:27;;;;;;;4.37;2.60;;;10.30;99.90;;;;;;5008780;28;20241;-76
2021/05/27 00:46:56;;;;;;;2.60;2.50;;;10.20;99.90;;;;;;5008863;28;20270;-79
2021/05/27 00:49:22;;;;;;;3.03;2.83;;;10.20;99.90;;;;;;5009189;28;20262;-78
2021/05/27 00:51:49;;;;;;;2.93;2.73;;;10.20;99.90;;;;;;5009176;28;20256;-78
2021/05/27 00:54:17;;;;;;;2.87;2.67;;;10.20;99.90;;;;;;5009055;28;20263;-78
2021/05/27 00:56:44;;;;;;;2.80;2.60;;;10.10;99.90;;;;;;5009000;28;20209;-78
2021/05/27 00:59:10;;;;;;;3.00;2.87;;;10.10;99.90;;;;;;5008891;28;20209;-78
2021/05/27 01:01:37;;;;;;;3.03;2.83;;;10.00;99.90;;;;;;5008694;28;20217;-79
2021/05/27 01:04:04;;;;;;;2.70;2.60;;;10.10;99.90;;;;;;5008765;28;20226;-78
2021/05/27 01:06:31;;;;;;;2.93;2.73;;;10.10;99.90;;;;;;5008532;28;21029;-77
2021/05/27 01:08:57;;;;;;;2.93;2.73;;;10.10;99.90;;;;;;5008917;28;20599;-77
2021/05/27 01:11:25;;;;;;;2.83;2.73;;;10.10;99.90;;;;;;5008741;28;20247;-78
2021/05/27 01:13:52;;;;;;;3.00;2.70;;;10.10;99.90;;;;;;5005174;28;20241;-78
2021/05/27 01:16:20;;;;;;;3.40;3.13;;;10.10;99.90;;;;;;4988937;28;20241;-78
2021/05/27 01:18:47;;;;;;;3.07;2.67;;;10.10;99.90;;;;;;4989065;28;20214;-75
2021/05/27 01:21:15;;;;;;;3.00;2.80;;;10.10;99.90;;;;;;4988674;28;20318;-75
2021/05/27 01:23:41;;;;;;;3.00;2.80;;;10.00;99.90;;;;;;4988421;28;20844;-75
2021/05/27 01:26:10;;;;;;;2.77;2.57;;;10.00;99.90;;;;;;4988803;28;20650;-75
2021/05/27 01:28:37;;;;;;;3.23;3.03;;;10.10;99.90;;;;;;4988786;28;20220;-75
2021/05/27 01:31:05;;;;;;;3.33;3.10;;;10.00;99.90;;;;;;4988905;28;20203;-75
2021/05/27 01:33:32;;;;;;;3.07;2.87;;;10.00;99.90;;;;;;4988553;28;20206;-75
2021/05/27 01:35:59;;;;;;;3.33;3.13;;;10.10;99.90;;;;;;4988883;28;20218;-75
2021/05/27 01:38:27;;;;;;;4.83;3.17;;;10.10;99.90;;;;;;4988536;28;20214;-75
2021/05/27 01:40:55;;;;;;;3.63;3.10;;;10.00;99.90;;;;;;4988662;28;20237;-75
2021/05/27 01:43:22;;;;;;;3.30;3.10;;;10.10;99.90;;;;;;4988226;28;20239;-74
2021/05/27 01:45:49;;;;;;;3.93;2.90;;;10.10;99.90;;;;;;4988475;28;20257;-75
2021/05/27 01:48:15;;;;;;;2.97;2.77;;;10.00;99.90;;;;;;4988597;28;20210;-75
2021/05/27 01:50:43;;;;;;;3.10;2.90;;;10.10;99.90;;;;;;4988411;28;20222;-75
2021/05/27 01:53:10;;;;;;;3.00;2.73;;;10.10;99.90;;;;;;4987639;28;20560;-75
2021/05/27 01:55:41;;;;;;;3.63;3.37;;;10.20;99.90;;;;;;4987877;28;20210;-76
2021/05/27 01:58:08;;;;;;;3.33;3.17;;;10.10;99.90;;;;;;4988190;28;20203;-75
2021/05/27 02:00:34;;;;;;;3.30;3.10;;;10.20;99.90;;;;;;4988312;28;20214;-76
2021/05/27 02:03:00;;;;;;;3.70;3.40;;;10.20;99.90;;;;;;4988208;28;20229;-76
2021/05/27 02:05:26;;;;;;;3.20;3.00;;;10.20;99.90;;;;;;4988197;28;20266;-76
2021/05/27 02:07:52;;;;;;;2.93;2.73;;;10.20;99.90;;;;;;4988226;28;20287;-77
2021/05/27 02:10:19;;;;;;;3.77;3.47;;;10.10;99.90;;;;;;4988196;28;20210;-77
2021/05/27 02:12:45;;;;;;;3.63;3.33;;;10.00;99.90;;;;;;4988213;28;20339;-77
2021/05/27 02:15:14;;;;;;;3.63;3.43;;;10.10;99.90;;;;;;4988009;28;20238;-78
2021/05/27 02:17:40;;;;;;;4.00;3.60;;;10.10;99.90;;;;;;4988154;28;20202;-78
2021/05/27 02:20:09;;;;;;;3.40;3.10;;;10.10;99.90;;;;;;4988129;28;20227;-77
2021/05/27 02:22:36;;;;;;;3.80;3.50;;;10.10;99.90;;;;;;4988214;28;20207;-77
2021/05/27 02:25:02;;;;;;;3.93;3.63;;;10.20;99.90;;;;;;4987889;28;20226;-77
2021/05/27 02:27:29;;;;;;;3.47;3.17;;;10.20;99.90;;;;;;4987612;28;20736;-77
2021/05/27 02:29:56;;;;;;;3.30;3.10;;;10.20;99.90;;;;;;4988121;28;20206;-77
2021/05/27 02:32:23;;;;;;;3.50;3.20;;;10.30;99.90;;;;;;4987895;28;20263;-77
2021/05/27 02:34:49;;;;;;;4.00;3.70;;;10.20;99.90;;;;;;4988126;28;20222;-77
2021/05/27 02:37:16;;;;;;;3.67;3.47;;;10.20;99.90;;;;;;4987578;28;20664;-76
2021/05/27 02:39:42;;;;;;;4.00;3.70;;;10.30;99.90;;;;;;4987697;28;20217;-76
2021/05/27 02:42:09;;;;;;;3.67;3.47;;;10.30;99.90;;;;;;4987902;28;20214;-76
2021/05/27 02:44:35;;;;;;;3.50;3.30;;;10.30;99.90;;;;;;4986861;28;20497;-77
2021/05/27 02:47:01;;;;;;;3.50;3.30;;;10.20;99.90;;;;;;4987886;28;20249;-78
2021/05/27 02:49:28;;;;;;;4.00;3.70;;;10.20;99.90;;;;;;4987221;28;20668;-77
2021/05/27 02:51:54;;;;;;;4.10;3.80;;;10.20;99.90;;;;;;4987601;28;20214;-77
2021/05/27 02:54:20;;;;;;;3.80;3.60;;;10.20;99.90;;;;;;4987854;28;20226;-77
2021/05/27 02:56:47;;;;;;;3.93;3.67;;;10.30;99.90;;;;;;4987843;28;20253;-77
2021/05/27 02:59:13;;;;;;;3.80;3.53;;;10.30;99.90;;;;;;4987481;28;20241;-77
2021/05/27 03:01:39;;;;;;;3.90;3.60;;;10.20;99.90;;;;;;4987277;28;20713;-78
2021/05/27 03:04:05;;;;;;;4.07;3.77;;;10.30;99.90;;;;;;4987164;28;20207;-77
2021/05/27 03:06:32;;;;;;;3.57;3.10;;;10.30;99.90;;;;;;4989473;28;20646;-75
2021/05/27 03:08:58;;;;;;;3.60;3.40;;;10.30;99.90;;;;;;5005804;28;20205;-75
2021/05/27 03:11:24;;;;;;;3.70;3.50;;;10.30;99.90;;;;;;5006217;28;20282;-77
2021/05/27 03:13:50;;;;;;;3.60;3.40;;;10.30;99.90;;;;;;5006464;28;20283;-77
2021/05/27 03:16:17;;;;;;;3.40;3.20;;;10.20;99.90;;;;;;5002439;28;20212;-77
2021/05/27 03:18:43;;;;;;;3.43;3.23;;;10.30;99.90;;;;;;5004828;28;20209;-76
2021/05/27 03:21:09;;;;;;;3.70;3.40;;;10.30;99.90;;;;;;5005554;28;20257;-76
2021/05/27 03:23:36;;;;;;;4.30;3.60;;;10.30;99.90;;;;;;5005130;28;20697;-77
2021/05/27 03:26:03;;;;;;;3.63;3.43;;;10.30;99.90;;;;;;5004899;28;20237;-78
2021/05/27 03:28:29;;;;;;;4.80;3.77;;;10.30;99.90;;;;;;5004433;28;20664;-77
2021/05/27 03:30:55;;;;;;;4.00;3.53;;;10.30;99.90;;;;;;5004832;28;20217;-77
2021/05/27 03:33:21;;;;;;;3.67;3.43;;;10.30;99.90;;;;;;5004363;28;20209;-81
2021/05/27 03:35:48;;;;;;;3.73;3.50;;;10.50;99.90;;;;;;5004394;28;20255;-78
2021/05/27 03:38:14;;;;;;;3.27;3.07;;;10.60;99.90;;;;;;5003782;28;20950;-77
2021/05/27 03:40:41;;;;;;;4.07;3.67;;;10.50;99.90;;;;;;5004434;28;20217;-77
2021/05/27 03:43:07;;;;;;;3.70;3.40;;;10.50;99.90;;;;;;5004557;28;20241;-76
2021/05/27 03:45:35;;;;;;;3.70;3.50;;;10.50;99.90;;;;;;5004183;28;20596;-77
2021/05/27 03:48:02;;;;;;;3.50;3.30;;;10.40;99.90;;;;;;5004575;28;20209;-76
2021/05/27 03:50:30;;;;;;;3.60;3.40;;;10.40;99.90;;;;;;5004282;28;20311;-76
2021/05/27 03:52:58;;;;;;;3.87;3.57;;;10.50;99.90;;;;;;5003860;28;20943;-77
2021/05/27 03:55:24;;;;;;;4.20;4.00;;;10.50;99.90;;;;;;5004238;28;20655;-77
2021/05/27 03:57:53;;;;;;;3.50;3.30;;;10.50;99.90;;;;;;5004319;28;20201;-76
2021/05/27 04:03:07;;;;;;;3.83;3.43;;;10.50;99.90;;;;;;5003751;28;20676;-76
2021/05/27 04:08:19;;;;;;;3.10;2.90;;;10.60;99.90;;;;;;5002112;28;20644;-76
2021/05/27 04:10:46;;;;;;;3.63;3.40;;;10.60;99.90;;;;;;5004386;28;20205;-76
2021/05/27 04:13:14;;;;;;;3.30;3.10;;;10.70;99.90;;;;;;5004277;28;20254;-76
2021/05/27 04:15:40;;;;;;;2.97;2.87;;;10.70;99.90;;;;;;5003726;28;20739;-76
2021/05/27 04:18:09;;;;;;;3.43;2.87;;;10.80;99.90;;;;;;5003575;28;20202;-76
2021/05/27 04:20:37;;;;;;;3.43;3.17;;;10.80;99.90;;;;;;5003882;28;20363;-76
2021/05/27 04:23:05;;;;;;;3.70;3.40;;;10.90;99.90;;;;;;5003951;28;20290;-76
2021/05/27 04:25:32;;;;;;;3.83;2.80;;;10.80;99.90;;;;;;5001453;28;20274;-76
2021/05/27 04:28:00;;;;;;;3.37;3.17;;;10.80;99.90;;;;;;5004133;28;20259;-76
2021/05/27 04:30:29;;;;;;;3.60;3.40;;;10.70;99.90;;;;;;5003920;28;20227;-76
2021/05/27 04:32:58;;;;;;;3.30;3.10;;;10.70;99.90;;;;;;5003948;28;20209;-77
2021/05/27 04:35:30;;;;;;;3.43;3.07;;;10.70;99.90;;;;;;5003970;28;20205;-76
2021/05/27 04:37:58;;;;;;;2.83;2.63;;;10.70;99.90;;;;;;5004033;28;20201;-76
2021/05/27 04:40:25;;;;;;;3.30;3.00;;;10.80;99.90;;;;;;5004085;28;20262;-76
2021/05/27 04:42:51;;;;;;;3.47;3.27;;;10.90;99.90;;;;;;5003647;28;20204;-76
2021/05/27 04:45:18;;;;;;;3.23;3.00;;;10.80;99.90;;;;;;5003196;28;20233;-76
2021/05/27 04:47:45;;;;;;;3.20;3.00;;;10.80;99.90;;;;;;5003871;28;20267;-76
2021/05/27 04:50:12;;;;;;;4.40;3.00;;;10.90;99.90;;;;;;5003621;28;20587;-76
2021/05/27 04:52:38;;;;;;;3.67;3.10;;;10.80;99.90;;;;;;5003850;28;20209;-76
2021/05/27 04:55:07;;;;;;;3.30;3.00;;;10.80;99.90;;;;;;5004019;28;20244;-76
2021/05/27 04:57:33;;;;;;;2.90;2.70;;;10.80;99.90;;;;;;5003684;28;20288;-77
2021/05/27 05:00:00;;;;;;;4.47;3.20;;;10.80;99.90;;;;;;5003901;28;20247;-77
2021/05/27 05:02:26;;;;;;;3.00;2.83;;;10.80;99.90;;;;;;5003763;28;20271;-76
2021/05/27 05:04:53;;;;;;;3.07;2.80;;;10.90;99.90;;;;;;5003495;28;20818;-76
2021/05/27 05:07:19;;;;;;;2.97;2.77;;;10.90;99.90;;;;;;5003320;28;20202;-76
2021/05/27 05:09:45;;;;;;;3.23;3.07;;;11.00;99.90;;;;;;5003566;28;20228;-76
2021/05/27 05:12:12;;;;;;;3.00;2.50;;;11.10;99.90;;;;;;5003862;28;20584;-76
2021/05/27 05:14:38;;;;;;;3.27;2.70;;;11.10;99.90;;;;;;5001703;28;20245;-76
2021/05/27 05:17:04;;;;;;;2.90;2.70;;;11.30;99.90;;;;;;5003307;28;20706;-76
2021/05/27 05:19:30;;;;;;;2.63;2.53;;;11.30;99.90;;;;;;5003382;28;20279;-82
2021/05/27 05:21:58;;;;;;;3.33;2.40;;;11.30;99.90;;;;;;5003544;28;20209;-81
2021/05/27 05:24:24;;;;;;;2.67;2.57;;;11.40;99.90;;;;;;5003143;28;20210;-76
2021/05/27 05:26:51;;;;;;;2.90;2.70;;;11.40;99.90;;;;;;5000407;28;20212;-76
2021/05/27 05:29:17;;;;;;;2.97;2.80;;;11.50;99.90;;;;;;5006461;28;20893;-77
2021/05/27 05:31:43;;;;;;;2.80;2.60;;;11.50;99.90;;;;;;5006810;28;20262;-77
2021/05/27 05:34:09;;;;;;;2.60;2.50;;;11.50;99.90;;;;;;5007323;28;20613;-77
2021/05/27 05:36:35;;;;;;;2.40;2.30;;;11.50;99.90;;;;;;5006533;28;20651;-76
2021/05/27 05:39:03;;;;;;;2.63;2.40;;;11.50;99.90;;;;;;5007278;28;20208;-76
2021/05/27 05:41:30;;;;;;;2.87;2.77;;;11.50;99.90;;;;;;5007031;28;20533;-77
2021/05/27 05:43:56;;;;;;;2.40;2.20;;;11.60;99.90;;;;;;5006273;28;20966;-76
2021/05/27 05:46:22;;;;;;;2.37;2.27;;;11.70;99.90;;;;;;5006728;28;20231;-76
2021/05/27 05:48:48;;;;;;;2.13;2.03;;;11.60;99.90;;;;;;5006985;28;20212;-76
2021/05/27 05:51:14;;;;;;;2.03;1.93;;;11.70;99.90;;;;;;5007156;28;20205;-80
2021/05/27 05:53:40;;;;;;;3.83;3.57;;;11.70;99.90;;;;;;5006771;28;20206;-78
2021/05/27 05:56:08;;;;;;;2.67;2.43;;;11.80;99.90;;;;;;5007072;28;20202;-77
2021/05/27 05:58:34;;;;;;;2.10;1.97;;;11.90;99.90;;;;;;5006567;28;20246;-77
2021/05/27 06:01:01;;;;;;;2.00;1.90;;;11.90;99.90;;;;;;5005936;28;20254;-77
2021/05/27 06:03:27;;;;;;;2.03;1.93;;;12.00;99.90;;;;;;5006152;28;20209;-77
2021/05/27 06:05:53;;;;;;;2.30;2.10;;;12.00;99.90;;;;;;5007211;28;20284;-76
2021/05/27 06:08:19;;;;;;;2.13;2.03;;;11.90;99.90;;;;;;5007210;28;20205;-76
2021/05/27 06:10:45;;;;;;;1.80;1.80;;;11.90;99.90;;;;;;5006695;28;20271;-76
2021/05/27 06:13:14;;;;;;;2.33;2.13;;;12.00;99.90;;;;;;5007101;28;20237;-77
2021/05/27 06:15:40;;;;;;;1.90;1.80;;;12.10;99.90;;;;;;5007001;28;20296;-77
2021/05/27 06:18:07;;;;;;;3.63;2.30;;;12.20;99.90;;;;;;5007016;28;20213;-76
2021/05/27 06:20:33;;;;;;;2.10;2.00;;;12.20;99.90;;;;;;5006564;28;20249;-76
2021/05/27 06:22:59;;;;;;;2.33;2.20;;;12.10;99.90;;;;;;5006960;28;20217;-76
2021/05/27 06:25:27;;;;;;;2.40;2.20;;;12.10;99.90;;;;;;5006531;28;20756;-76
2021/05/27 06:27:54;;;;;;;2.47;2.37;;;12.20;99.90;;;;;;5006256;28;20338;-76
2021/05/27 06:30:23;;;;;;;2.27;2.07;;;12.00;99.90;;;;;;5006629;28;20216;-76
2021/05/27 06:32:49;;;;;;;2.63;2.10;;;12.00;99.90;;;;;;5006771;28;20223;-76
2021/05/27 06:35:16;;;;;;;2.13;2.03;;;12.00;99.90;;;;;;5006635;28;20209;-76
2021/05/27 06:37:42;;;;;;;2.50;2.20;;;11.90;99.90;;;;;;5006965;28;20554;-76
2021/05/27 06:40:12;;;;;;;2.60;2.50;;;11.90;99.90;;;;;;5006086;28;20297;-76
2021/05/27 06:42:39;;;;;;;3.47;2.47;;;11.90;99.90;;;;;;5006097;28;20214;-76
2021/05/27 06:45:07;;;;;;;2.90;2.27;;;12.00;99.90;;;;;;5006464;28;20294;-76
2021/05/27 06:47:34;;;;;;;2.60;2.40;;;12.10;99.90;;;;;;5006363;28;20213;-76
2021/05/27 06:50:00;;;;;;;2.60;2.40;;;12.00;99.90;;;;;;5006204;28;20217;-76
2021/05/27 06:52:26;;;;;;;2.53;2.40;;;12.10;99.90;;;;;;5006195;28;20270;-76
2021/05/27 06:54:53;;;;;;;2.77;2.40;;;12.10;99.90;;;;;;5006315;28;20222;-76
2021/05/27 06:57:20;;;;;;;5.07;3.57;;;12.20;99.90;;;;;;5004580;28;20217;-76
2021/05/27 06:59:46;;;;;;;3.30;2.77;;;12.30;99.90;;;;;;5005955;28;20293;-76
2021/05/27 07:02:12;;;;;;;4.33;2.50;;;12.30;99.90;;;;;;5006382;28;20210;-76
2021/05/27 07:04:39;;;;;;;4.53;4.13;;;12.20;99.90;;;;;;5005853;28;20220;-76
2021/05/27 07:07:06;;;;;;;4.57;3.67;;;12.20;99.90;;;;;;5005956;28;20209;-77
2021/05/27 07:09:32;;;;;;;3.30;2.30;;;12.10;99.90;;;;;;5005781;28;20213;-76
2021/05/27 07:11:58;;;;;;;2.03;1.93;;;12.10;99.90;;;;;;5005675;28;20240;-76
2021/05/27 07:14:25;;;;;;;2.43;2.30;;;12.00;99.90;;;;;;5005387;28;20209;-76
2021/05/27 07:16:51;;;;;;;2.87;2.30;;;11.90;99.90;;;;;;5005767;28;20214;-76
2021/05/27 07:19:17;;;;;;;2.00;1.90;;;11.90;99.90;;;;;;5005102;28;20739;-76
2021/05/27 07:21:45;;;;;;;2.30;2.20;;;11.90;99.90;;;;;;5005327;28;20210;-76
2021/05/27 07:24:11;;;;;;;3.33;2.10;;;11.90;99.90;;;;;;5005812;28;20210;-76
2021/05/27 07:26:38;;;;;;;1.80;1.70;;;11.90;99.90;;;;;;5005988;28;20229;-77
2021/05/27 07:29:04;;;;;;;1.90;1.80;;;12.00;99.90;;;;;;5005598;28;20194;-79
2021/05/27 07:31:32;;;;;;;2.03;1.93;;;12.20;99.90;;;;;;5005074;28;20213;-80
2021/05/27 07:33:59;;;;;;;1.87;1.70;;;12.30;99.90;;;;;;5005206;28;20197;-77
2021/05/27 07:36:25;;;;;;;2.33;1.97;;;12.30;99.90;;;;;;5005142;28;20573;-77
2021/05/27 07:38:52;;;;;;;1.97;1.83;;;12.30;99.90;;;;;;5002741;28;20209;-77
2021/05/27 07:41:18;;;;;;;1.57;1.50;;;12.40;99.90;;;;;;5005379;28;20194;-77
2021/05/27 07:43:45;;;;;;;3.83;1.67;;;12.40;99.90;;;;;;5004584;28;20711;-77
2021/05/27 07:46:11;;;;;;;1.80;1.70;;;12.30;99.90;;;;;;5004872;28;20757;-76
2021/05/27 07:48:37;;;;;;;1.70;1.60;;;12.30;99.90;;;;;;5004916;28;20202;-77
2021/05/27 07:51:05;;;;;;;1.70;1.60;;;12.40;99.90;;;;;;5004025;28;20204;-77
2021/05/27 07:53:31;;;;;;;1.60;1.47;;;12.40;99.90;;;;;;5004392;28;20213;-77
2021/05/27 07:55:58;;;;;;;1.60;1.50;;;12.50;99.90;;;;;;5005244;28;20208;-77
2021/05/27 07:58:24;;;;;;;2.60;1.90;;;12.60;99.90;;;;;;5005160;28;20234;-77
2021/05/27 08:00:50;;;;;;;2.20;2.10;;;12.60;99.90;;;;;;5004844;28;20202;-77
2021/05/27 08:03:16;;;;;;;1.50;1.40;;;12.70;99.90;;;;;;5005186;28;20209;-77
2021/05/27 08:05:42;;;;;;;1.67;1.47;;;12.70;99.90;;;;;;5004985;28;20271;-77
2021/05/27 08:08:08;;;;;;;1.30;1.30;;;12.60;99.90;;;;;;5004918;28;20205;-77
2021/05/27 08:10:35;;;;;;;1.97;1.87;;;12.60;99.90;;;;;;5004631;28;20698;-77
2021/05/27 08:13:02;;;;;;;1.47;1.43;;;12.70;99.90;;;;;;5004745;28;20663;-77
2021/05/27 08:15:28;;;;;;;1.50;1.40;;;12.70;99.90;;;;;;5004776;28;20202;-77
2021/05/27 08:17:54;;;;;;;3.50;1.80;;;12.70;99.90;;;;;;5005089;28;20197;-78
2021/05/27 08:20:20;;;;;;;1.90;1.80;;;12.50;99.90;;;;;;5005029;28;20225;-77
2021/05/27 08:22:46;;;;;;;2.07;1.97;;;12.40;99.90;;;;;;5004771;28;20213;-77
2021/05/27 08:25:12;;;;;;;1.90;1.80;;;12.20;99.90;;;;;;5002067;28;20282;-77
2021/05/27 08:27:38;;;;;;;2.30;2.10;;;12.00;99.90;;;;;;5004082;28;20664;-77
2021/05/27 08:30:06;;;;;;;2.87;2.43;;;11.90;99.90;;;;;;5004481;28;20205;-77
2021/05/27 08:32:33;;;;;;;2.20;2.10;;;11.80;99.90;;;;;;5002335;28;20197;-83
2021/05/27 08:35:02;;;;;;;3.30;3.10;;;11.90;99.90;;;;;;5005373;28;20210;-78
2021/05/27 08:37:28;;;;;;;2.97;2.77;;;11.90;99.90;;;;;;5004189;28;20205;-77
2021/05/27 08:39:55;;;;;;;2.60;2.47;;;11.90;99.90;;;;;;5004142;28;20198;-77
2021/05/27 08:42:21;;;;;;;3.87;3.57;;;11.80;99.90;;;;;;5004398;28;20206;-77
2021/05/27 08:44:50;;;;;;;3.03;2.83;;;11.70;99.90;;;;;;5003921;28;20234;-77
2021/05/27 08:47:18;;;;;;;3.07;2.87;;;11.60;99.90;;;;;;5004615;28;20206;-77
2021/05/27 08:49:48;;;;;;;3.30;3.10;;;11.50;99.90;;;;;;5004173;28;20209;-77
2021/05/27 08:52:14;;;;;;;2.97;2.67;;;11.60;99.90;;;;;;5004447;28;20205;-77
2021/05/27 08:54:40;;;;;;;2.93;2.73;;;11.70;99.90;;;;;;5003956;28;20679;-77
2021/05/27 08:57:06;;;;;;;3.17;2.97;;;11.70;99.90;;;;;;5004435;28;20210;-77
2021/05/27 08:59:33;;;;;;;2.73;2.63;;;11.80;99.90;;;;;;5004281;28;20210;-77
2021/05/27 09:02:04;;;;;;;2.23;2.03;;;11.90;99.90;;;;;;5004274;28;20201;-77
2021/05/27 09:04:32;;;;;;;2.40;2.30;;;12.00;99.90;;;;;;5007278;28;20205;-77
2021/05/27 09:07:02;;;;;;;2.10;2.00;;;12.30;99.90;;;;;;5007573;28;20209;-77
2021/05/27 09:09:50;;;;;;;2.27;2.17;;;12.30;99.90;;;;;;5007294;28;20233;-78
2021/05/27 09:12:27;;;;;;;2.50;2.40;;;12.60;99.90;;;;;;5005733;28;20217;-77
2021/05/27 09:14:54;;;;;;;2.47;2.27;;;12.70;99.90;;;;;;5002481;28;20205;-77
2021/05/27 09:17:20;;;;;;;3.90;3.60;;;12.70;99.90;;;;;;5006934;28;20627;-77
2021/05/27 09:20:17;;;;;;;2.83;2.00;;;12.90;99.90;;;;;;5007274;28;20716;-76
2021/05/27 09:22:43;;;;;;;1.60;1.50;;;12.90;99.90;;;;;;5007017;28;20568;-77
2021/05/27 09:25:24;;;;;;;1.90;1.80;;;12.90;99.90;;;;;;5007135;28;20225;-77
2021/05/27 09:27:50;;;;;;;1.37;1.27;;;13.00;99.90;;;;;;5007446;28;20201;-77
2021/05/27 09:30:18;;;;;;;1.63;1.30;;;13.10;99.90;;;;;;5012152;28;20565;-76
2021/05/27 09:32:48;;;;;;;1.17;0.80;;;13.00;99.90;;;;;;5018048;28;20210;-76
2021/05/27 09:35:16;;;;;;;0.50;0.50;;;13.00;99.90;;;;;;5002169;28;20209;-76
2021/05/27 09:37:51;;;;;;;0.53;0.50;;;13.20;99.90;;;;;;5006224;28;20581;-77
2021/05/27 09:40:29;;;;;;;0.60;0.50;;;13.50;99.90;;;;;;5005297;28;20201;-76
2021/05/27 09:42:57;;;;;;;0.77;0.60;;;13.90;99.90;;;;;;5005205;28;20193;-77
2021/05/27 09:45:24;;;;;;;0.57;0.40;;;14.00;99.90;;;;;;5006987;28;20226;-77
2021/05/27 09:47:50;;;;;;;0.43;0.40;;;14.10;99.90;;;;;;5007017;28;20209;-76
2021/05/27 09:50:18;;;;;;;0.53;0.53;;;14.20;99.90;;;;;;5006833;28;20197;-76
2021/05/27 09:52:46;;;;;;;1.27;0.80;;;14.30;99.90;;;;;;5006745;28;20202;-77
2021/05/27 09:55:13;;;;;;;1.13;0.40;;;14.50;99.90;;;;;;5004415;28;20205;-75
2021/05/27 09:57:41;;;;;;;0.53;0.40;;;14.40;99.90;;;;;;5006693;28;20254;-76
2021/05/27 10:00:25;;;;;;;0.73;0.47;;;14.30;99.90;;;;;;5006722;28;20201;-76
2021/05/27 10:02:52;;;;;;;0.73;0.53;;;14.40;99.90;;;;;;5006471;28;20201;-76
2021/05/27 10:05:20;;;;;;;0.80;0.60;;;14.70;99.90;;;;;;5007307;28;20265;-76
2021/05/27 10:07:47;;;;;;;0.40;0.40;;;14.80;99.90;;;;;;5006570;28;20210;-75
2021/05/27 10:10:15;;;;;;;0.77;0.40;;;14.90;99.90;;;;;;5004262;28;20198;-76
2021/05/27 10:12:43;;;;;;;1.07;0.50;;;15.20;99.90;;;;;;5006557;28;20202;-75
2021/05/27 10:15:12;;;;;;;0.70;0.40;;;15.30;99.90;;;;;;5005562;28;20236;-81
2021/05/27 10:17:39;;;;;;;1.77;0.97;;;15.30;99.90;;;;;;5006487;28;20250;-80
2021/05/27 10:20:08;;;;;;;0.67;0.50;;;15.30;99.90;;;;;;5006454;28;20230;-77
2021/05/27 10:22:35;;;;;;;0.67;0.67;;;15.20;99.90;;;;;;5003673;28;20208;-76
2021/05/27 10:25:04;;;;;;;0.83;0.50;;;15.10;99.90;;;;;;5006362;28;20225;-76
2021/05/27 10:27:30;;;;;;;0.80;0.60;;;15.00;99.90;;;;;;5006175;28;20201;-75
2021/05/27 10:29:58;;;;;;;1.90;0.80;;;15.00;99.90;;;;;;5005959;28;20210;-76
2021/05/27 10:32:25;;;;;;;1.40;0.50;;;15.10;99.90;;;;;;5005913;28;20842;-76
2021/05/27 10:34:52;;;;;;;0.60;0.60;;;15.00;99.90;;;;;;5006081;28;20556;-76
2021/05/27 10:37:47;;;;;;;0.40;0.40;;;15.00;99.90;;;;;;5005986;28;20259;-76
2021/05/27 10:40:37;;;;;;;0.53;0.53;;;14.90;99.90;;;;;;5003772;28;20210;-76
2021/05/27 10:43:14;;;;;;;0.37;0.37;;;14.90;99.90;;;;;;5001975;28;20237;-77
2021/05/27 10:46:06;;;;;;;1.27;0.43;;;14.80;99.90;;;;;;5001034;28;20695;-77
2021/05/27 10:48:39;;;;;;;0.97;0.50;;;14.70;99.90;;;;;;5000125;28;20204;-77
2021/05/27 10:51:12;;;;;;;0.83;0.70;;;14.90;99.90;;;;;;5006192;28;20213;-76
2021/05/27 10:53:56;;;;;;;1.40;0.60;;;14.90;99.90;;;;;;5003845;28;20201;-77
2021/05/27 10:56:39;;;;;;;1.40;0.50;;;14.90;99.90;;;;;;5004545;28;20539;-77
2021/05/27 10:59:06;;;;;;;0.57;0.43;;;14.90;99.90;;;;;;5002230;28;20632;-76
2021/05/27 11:02:00;;;;;;;1.47;0.40;;;14.90;99.90;;;;;;5005659;28;20206;-76
2021/05/27 11:04:40;;;;;;;1.97;0.60;;;15.00;99.90;;;;;;5027948;28;20206;-76
2021/05/27 11:07:31;;;;;;;0.67;0.60;;;15.20;99.90;;;;;;5005717;28;20234;-76
2021/05/27 11:09:59;;;;;;;0.83;0.50;;;15.40;99.90;;;;;;5006053;28;20198;-76
2021/05/27 11:12:35;;;;;;;1.03;0.40;;;15.70;99.90;;;;;;5005587;28;20202;-76
2021/05/27 11:15:15;;;;;;;0.40;0.40;;;15.90;99.90;;;;;;5005792;28;20655;-76
2021/05/27 11:17:42;;;;;;;0.63;0.60;;;15.90;99.90;;;;;;5005744;28;20197;-76
2021/05/27 11:20:13;;;;;;;0.40;0.20;;;16.40;99.90;;;;;;5005188;28;20251;-76
2021/05/27 11:23:08;;;;;;;0.40;0.40;;;16.50;99.90;;;;;;5001515;28;20600;-76
2021/05/27 11:25:37;;;;;;;0.93;0.40;;;16.40;99.90;;;;;;5005245;28;20229;-76
2021/05/27 11:28:34;;;;;;;0.30;0.30;;;16.10;99.90;;;;;;5005777;28;20206;-76
2021/05/27 11:31:01;;;;;;;0.30;0.30;;;15.70;99.90;;;;;;5005702;28;20213;-76
2021/05/27 11:33:32;;;;;;;1.10;0.67;;;15.60;99.90;;;;;;5005121;28;20216;-76
2021/05/27 11:36:01;;;;;;;1.30;0.40;;;15.70;99.90;;;;;;5005597;28;20197;-76
2021/05/27 11:38:29;;;;;;;0.67;0.67;;;15.70;99.90;;;;;;5005301;28;20201;-75
2021/05/27 11:40:58;;;;;;;1.03;1.03;;;15.60;99.90;;;;;;5005662;28;20258;-76
2021/05/27 11:43:29;;;;;;;0.40;0.40;;;15.30;99.90;;;;;;5005335;28;20245;-76
2021/05/27 11:45:57;;;;;;;1.10;0.40;;;15.10;99.90;;;;;;5005451;28;20588;-76
2021/05/27 11:48:26;;;;;;;1.50;0.53;;;15.10;99.90;;;;;;5005241;28;20201;-76
2021/05/27 11:51:00;;;;;;;0.30;0.30;;;15.20;99.90;;;;;;5005316;28;20206;-76
2021/05/27 11:53:26;;;;;;;0.30;0.30;;;15.10;99.90;;;;;;5005008;28;20198;-76
2021/05/27 11:55:53;;;;;;;0.57;0.40;;;15.10;99.90;;;;;;5005229;28;20210;-76
2021/05/27 11:58:34;;;;;;;0.10;0.10;;;15.40;99.90;;;;;;5005487;28;20206;-76
2021/05/27 12:01:17;;;;;;;0.57;0.10;;;15.60;99.90;;;;;;5005559;28;20209;-76
2021/05/27 12:04:10;;;;;;;0.27;0.27;;;15.90;99.90;;;;;;5004786;28;20198;-76
2021/05/27 12:06:54;;;;;;;0.33;0.33;;;16.10;99.90;;;;;;5004571;28;20241;-76
2021/05/27 12:09:45;;;;;;;0.93;0.27;;;16.30;99.90;;;;;;5004868;28;20209;-76
2021/05/27 12:12:23;;;;;;;0.87;0.20;;;16.30;99.90;;;;;;5005958;28;20210;-76
2021/05/27 12:14:53;;;;;;;0.40;0.40;;;16.20;99.90;;;;;;5004758;28;20194;-76
2021/05/27 12:17:25;;;;;;;3.03;0.50;;;16.50;99.90;;;;;;5002533;28;20209;-76
2021/05/27 12:19:54;;;;;;;0.30;0.30;;;16.60;99.90;;;;;;5004949;28;20228;-74
2021/05/27 12:22:21;;;;;;;0.47;0.47;;;16.30;99.90;;;;;;5004938;28;20221;-74
2021/05/27 12:25:05;;;;;;;0.23;0.23;;;16.50;99.90;;;;;;5004821;28;20275;-75
2021/05/27 12:27:39;;;;;;;0.30;0.30;;;16.80;99.90;;;;;;5004089;28;20577;-76
2021/05/27 12:30:08;;;;;;;0.43;0.30;;;16.80;99.90;;;;;;5004872;28;20669;-76
2021/05/27 12:32:38;;;;;;;0.20;0.20;;;16.60;99.90;;;;;;5004661;28;20679;-76
2021/05/27 12:35:05;;;;;;;1.30;0.20;;;16.50;99.90;;;;;;5004812;28;20206;-76
2021/05/27 12:37:39;;;;;;;0.30;0.20;;;16.70;99.90;;;;;;5004757;28;20278;-76
2021/05/27 12:40:07;;;;;;;0.53;0.37;;;16.80;99.90;;;;;;5008293;28;20209;-76
2021/05/27 12:42:37;;;;;;;0.40;0.40;;;16.50;99.90;;;;;;5008118;28;20656;-76
2021/05/27 12:45:23;;;;;;;0.67;0.47;;;16.10;99.90;;;;;;5008150;28;20225;-77
2021/05/27 12:48:07;;;;;;;0.37;0.33;;;15.70;99.90;;;;;;5008450;28;20250;-76
2021/05/27 12:50:33;;;;;;;0.10;0.10;;;15.60;99.90;;;;;;5008061;28;20209;-77
2021/05/27 12:52:59;;;;;;;0.20;0.20;;;15.10;99.90;;;;;;5008046;28;20213;-77
2021/05/27 12:55:30;;;;;;;2.23;0.37;;;14.80;99.90;;;;;;5008050;28;20217;-77
2021/05/27 12:57:59;;;;;;;0.83;0.83;;;14.40;99.90;;;;;;5008124;28;20201;-76
2021/05/27 13:00:27;;;;;;;2.07;1.93;;;14.20;99.90;;;;;;5008458;28;20254;-77